Time,TemperatureF,DewpointF,PressureIn,WindDirection,WindDirectionDegrees,WindSpeedMPH,WindSpeedGustMPH,Humidity,HourlyPrecipIn,Conditions,Clouds,dailyrainin,SoftwareType,DateUTC
2013-07-28 00:07:00,73.6,63.6,29.86,ESE,112,2.7,-999.0,71,-99.99,,,0.00,Acu-Link.com,2013-07-28 04:07:00,
2013-07-28 00:22:00,73.4,63.0,29.86,WNW,292,4.7,-999.0,70,-99.99,,,0.00,Acu-Link.com,2013-07-28 04:22:00,
2013-07-28 00:38:00,73.6,63.6,29.87,WNW,292,3.7,-999.0,71,-99.99,,,0.00,Acu-Link.com,2013-07-28 04:38:00,
2013-07-28 00:53:00,73.6,63.2,29.87,WSW,247,2.7,-999.0,70,-99.99,,,0.00,Acu-Link.com,2013-07-28 04:53:00,
2013-07-28 01:08:00,73.6,63.2,29.86,ENE,67,0.0,-999.0,70,-99.99,,,0.00,Acu-Link.com,2013-07-28 05:08:00,
2013-07-28 01:24:00,73.9,63.1,29.87,SSW,202,3.7,-999.0,69,-99.99,,,0.00,Acu-Link.com,2013-07-28 05:24:00,
2013-07-28 01:39:00,73.6,64.4,29.87,SSW,202,4.7,-999.0,73,-99.99,,,0.00,Acu-Link.com,2013-07-28 05:39:00,
2013-07-28 01:54:00,73.6,65.9,29.87,East,90,2.2,-999.0,77,-99.99,,,0.00,Acu-Link.com,2013-07-28 05:54:00,
2013-07-28 02:10:00,73.0,66.1,29.87,ENE,67,1.7,-999.0,79,-99.99,,,0.00,Acu-Link.com,2013-07-28 06:10:00,
2013-07-28 02:25:00,73.2,65.5,29.87,West,270,1.7,-999.0,77,-99.99,,,0.00,Acu-Link.com,2013-07-28 06:25:00,
2013-07-28 02:40:00,73.0,65.4,29.87,SW,225,4.7,-999.0,77,-99.99,,,0.00,Acu-Link.com,2013-07-28 06:40:00,
2013-07-28 02:55:00,72.9,65.6,29.87,West,270,3.2,-999.0,78,-99.99,,,0.00,Acu-Link.com,2013-07-28 06:55:00,
2013-07-28 03:10:00,72.5,65.2,29.85,West,270,3.7,-999.0,78,-99.99,,,0.00,Acu-Link.com,2013-07-28 07:10:00,
2013-07-28 03:26:00,72.3,64.3,29.86,WSW,247,4.7,-999.0,76,-99.99,,,0.00,Acu-Link.com,2013-07-28 07:26:00,
2013-07-28 03:41:00,72.5,64.5,29.85,WSW,247,4.7,-999.0,76,-99.99,,,0.00,Acu-Link.com,2013-07-28 07:41:00,
2013-07-28 03:56:00,72.3,64.7,29.86,SW,225,2.7,-999.0,77,-99.99,,,0.00,Acu-Link.com,2013-07-28 07:56:00,
2013-07-28 04:27:00,72.0,65.5,29.86,SW,225,2.7,-999.0,80,-99.99,,,0.00,Acu-Link.com,2013-07-28 08:27:00,
2013-07-28 04:42:00,71.8,65.6,29.87,WSW,247,3.2,-999.0,81,-99.99,,,0.00,Acu-Link.com,2013-07-28 08:42:00,
2013-07-28 04:57:00,72.0,64.4,29.87,ESE,112,5.3,-999.0,77,-99.99,,,0.00,Acu-Link.com,2013-07-28 08:57:00,
2013-07-28 05:12:00,72.5,63.7,29.86,South,180,3.7,-999.0,74,-99.99,,,0.00,Acu-Link.com,2013-07-28 09:12:00,
2013-07-28 05:27:00,72.0,64.0,29.87,SW,225,2.7,-999.0,76,-99.99,,,0.00,Acu-Link.com,2013-07-28 09:27:00,
2013-07-28 05:43:00,72.7,65.1,29.87,SSW,202,2.7,-999.0,77,-99.99,,,0.00,Acu-Link.com,2013-07-28 09:43:00,
2013-07-28 05:58:00,73.0,64.6,29.86,WSW,247,0.0,-999.0,75,-99.99,,,0.00,Acu-Link.com,2013-07-28 09:58:00,
2013-07-28 06:13:00,72.9,64.9,29.88,South,180,2.7,-999.0,76,-99.99,,,0.00,Acu-Link.com,2013-07-28 10:13:00,
2013-07-28 06:29:00,72.9,64.9,29.88,WSW,247,2.7,-999.0,76,-99.99,,,0.00,Acu-Link.com,2013-07-28 10:29:00,
2013-07-28 06:44:00,73.4,64.6,29.89,SW,225,3.7,-999.0,74,-99.99,,,0.00,Acu-Link.com,2013-07-28 10:44:00,
2013-07-28 07:00:00,73.8,63.4,29.89,West,270,6.8,-999.0,70,-99.99,,,0.00,Acu-Link.com,2013-07-28 11:00:00,
2013-07-28 07:15:00,74.1,63.3,29.89,WSW,247,5.8,-999.0,69,-99.99,,,0.00,Acu-Link.com,2013-07-28 11:15:00,
2013-07-28 07:30:00,74.7,63.8,29.89,SE,135,2.2,-999.0,69,-99.99,,,0.00,Acu-Link.com,2013-07-28 11:30:00,
2013-07-28 07:45:00,74.3,63.5,29.89,SSW,202,5.8,-999.0,69,-99.99,,,0.00,Acu-Link.com,2013-07-28 11:45:00,
2013-07-28 08:01:00,75.4,64.5,29.88,SW,225,2.2,-999.0,69,-99.99,,,0.00,Acu-Link.com,2013-07-28 12:01:00,
2013-07-28 08:16:00,75.7,63.9,29.88,WSW,247,5.3,-999.0,67,-99.99,,,0.00,Acu-Link.com,2013-07-28 12:16:00,
2013-07-28 08:46:00,76.3,64.1,29.88,SW,225,5.8,-999.0,66,-99.99,,,0.00,Acu-Link.com,2013-07-28 12:46:00,
2013-07-28 09:01:00,76.8,64.1,29.87,WSW,247,3.7,-999.0,65,-99.99,,,0.00,Acu-Link.com,2013-07-28 13:01:00,
2013-07-28 09:17:00,76.8,64.1,29.87,SSW,202,3.7,-999.0,65,-99.99,,,0.00,Acu-Link.com,2013-07-28 13:17:00,
2013-07-28 09:32:00,77.5,65.2,29.88,North,0,2.7,-999.0,66,-99.99,,,0.00,Acu-Link.com,2013-07-28 13:32:00,
2013-07-28 09:47:00,77.5,65.7,29.87,West,270,2.2,-999.0,67,-99.99,,,0.00,Acu-Link.com,2013-07-28 13:47:00,
2013-07-28 10:02:00,76.3,66.6,29.86,SSE,157,3.2,-999.0,72,-99.99,,,0.00,Acu-Link.com,2013-07-28 14:02:00,
2013-07-28 10:18:00,76.5,66.0,29.86,SSE,157,3.2,-999.0,70,-99.99,,,0.00,Acu-Link.com,2013-07-28 14:18:00,
2013-07-28 10:33:00,75.9,66.2,29.86,SW,225,6.8,-999.0,72,-99.99,,,0.00,Acu-Link.com,2013-07-28 14:33:00,
2013-07-28 10:48:00,78.1,67.1,29.86,North,0,3.2,-999.0,69,-99.99,,,0.00,Acu-Link.com,2013-07-28 14:48:00,
2013-07-28 11:03:00,78.1,67.9,29.85,SE,135,4.7,-999.0,71,-99.99,,,0.00,Acu-Link.com,2013-07-28 15:03:00,
2013-07-28 11:19:00,78.4,67.8,29.86,SE,135,2.7,-999.0,70,-99.99,,,0.00,Acu-Link.com,2013-07-28 15:19:00,
2013-07-28 11:34:00,78.3,67.7,29.86,South,180,5.8,-999.0,70,-99.99,,,0.00,Acu-Link.com,2013-07-28 15:34:00,
2013-07-28 11:49:00,78.4,67.8,29.86,ENE,67,2.7,-999.0,70,-99.99,,,0.00,Acu-Link.com,2013-07-28 15:49:00,
2013-07-28 12:05:00,77.9,67.3,29.87,NNE,22,2.7,-999.0,70,-99.99,,,0.00,Acu-Link.com,2013-07-28 16:05:00,
2013-07-28 12:20:00,79.2,67.7,29.87,ESE,112,2.2,-999.0,68,-99.99,,,0.00,Acu-Link.com,2013-07-28 16:20:00,
2013-07-28 12:35:00,79.7,67.8,29.86,SSE,157,2.2,-999.0,67,-99.99,,,0.00,Acu-Link.com,2013-07-28 16:35:00,
2013-07-28 13:07:00,78.8,66.9,29.87,NW,315,1.1,-999.0,67,-99.99,,,0.00,Acu-Link.com,2013-07-28 17:07:00,
2013-07-28 13:22:00,79.0,67.1,29.87,ENE,67,1.7,-999.0,67,-99.99,,,0.00,Acu-Link.com,2013-07-28 17:22:00,
2013-07-28 13:37:00,78.4,67.4,29.88,SSE,157,2.2,-999.0,69,-99.99,,,0.00,Acu-Link.com,2013-07-28 17:37:00,
2013-07-28 13:53:00,77.0,68.1,29.86,SE,135,2.7,-999.0,74,-99.99,,,0.00,Acu-Link.com,2013-07-28 17:53:00,
2013-07-28 14:08:00,76.8,68.6,29.86,ESE,112,2.2,-999.0,76,-99.99,,,0.00,Acu-Link.com,2013-07-28 18:08:00,
2013-07-28 14:23:00,77.4,69.2,29.85,SSE,157,5.3,-999.0,76,-99.99,,,0.00,Acu-Link.com,2013-07-28 18:23:00,
2013-07-28 14:38:00,77.2,69.0,29.84,ESE,112,2.7,-999.0,76,-99.99,,,0.00,Acu-Link.com,2013-07-28 18:38:00,
2013-07-28 14:54:00,77.7,67.9,29.84,ESE,112,4.7,-999.0,72,-99.99,,,0.00,Acu-Link.com,2013-07-28 18:54:00,
2013-07-28 15:09:00,79.2,68.6,29.82,WSW,247,2.2,-999.0,70,-99.99,,,0.00,Acu-Link.com,2013-07-28 19:09:00,
2013-07-28 15:24:00,81.1,69.1,29.83,SW,225,4.7,-999.0,67,-99.99,,,0.00,Acu-Link.com,2013-07-28 19:24:00,
2013-07-28 15:39:00,81.1,69.1,29.83,ENE,67,7.3,-999.0,67,-99.99,,,0.00,Acu-Link.com,2013-07-28 19:39:00,
2013-07-28 15:54:00,80.8,69.2,29.84,ESE,112,2.7,-999.0,68,-99.99,,,0.00,Acu-Link.com,2013-07-28 19:54:00,
2013-07-28 16:09:00,79.5,68.0,29.83,WSW,247,4.7,-999.0,68,-99.99,,,0.00,Acu-Link.com,2013-07-28 20:09:00,
2013-07-28 16:24:00,79.7,68.2,29.84,ENE,67,5.3,-999.0,68,-99.99,,,0.00,Acu-Link.com,2013-07-28 20:24:00,
2013-07-28 16:40:00,80.8,68.8,29.82,East,90,1.7,-999.0,67,-99.99,,,0.00,Acu-Link.com,2013-07-28 20:40:00,
2013-07-28 16:55:00,82.4,69.4,29.82,SSW,202,2.7,-999.0,65,-99.99,,,0.00,Acu-Link.com,2013-07-28 20:55:00,
2013-07-28 17:10:00,81.9,69.0,29.83,NNE,22,2.7,-999.0,65,-99.99,,,0.00,Acu-Link.com,2013-07-28 21:10:00,
2013-07-28 17:25:00,81.5,67.2,29.83,NE,45,4.7,-999.0,62,-99.99,,,0.00,Acu-Link.com,2013-07-28 21:25:00,
2013-07-28 17:41:00,80.6,67.3,29.85,SSE,157,2.2,-999.0,64,-99.99,,,0.00,Acu-Link.com,2013-07-28 21:41:00,
2013-07-28 17:56:00,79.5,68.4,29.85,ESE,112,3.7,-999.0,69,-99.99,,,0.00,Acu-Link.com,2013-07-28 21:56:00,
2013-07-28 18:11:00,77.9,69.3,29.86,WSW,247,3.7,-999.0,75,-99.99,,,0.00,Acu-Link.com,2013-07-28 22:11:00,
2013-07-28 18:30:00,76.6,69.6,29.86,South,180,6.3,-999.0,79,-99.99,,,0.00,Acu-Link.com,2013-07-28 22:30:00,
2013-07-28 18:46:00,75.2,69.7,29.87,West,270,1.7,-999.0,83,-99.99,,,0.02,Acu-Link.com,2013-07-28 22:46:00,
2013-07-28 19:01:00,75.0,69.1,29.86,South,180,1.1,-999.0,82,-99.99,,,0.03,Acu-Link.com,2013-07-28 23:01:00,
2013-07-28 19:16:00,74.3,69.5,29.87,NE,45,2.7,-999.0,85,-99.99,,,0.07,Acu-Link.com,2013-07-28 23:16:00,
2013-07-28 19:32:00,74.1,69.6,29.87,SSW,202,1.7,-999.0,86,-99.99,,,0.08,Acu-Link.com,2013-07-28 23:32:00,
2013-07-28 19:47:00,73.8,70.0,29.88,NNW,337,0.0,-999.0,88,-99.99,,,0.09,Acu-Link.com,2013-07-28 23:47:00,
2013-07-28 20:02:00,73.6,69.8,29.85,ENE,67,4.2,-999.0,88,-99.99,,,0.11,Acu-Link.com,2013-07-29 00:02:00,
2013-07-28 20:17:00,73.4,69.6,29.85,West,270,1.7,-999.0,88,-99.99,,,0.12,Acu-Link.com,2013-07-29 00:17:00,
2013-07-28 20:33:00,73.2,69.8,29.86,NE,45,1.7,-999.0,89,-99.99,,,0.12,Acu-Link.com,2013-07-29 00:33:00,
2013-07-28 20:49:00,73.2,70.1,29.85,SW,225,2.2,-999.0,90,-99.99,,,0.13,Acu-Link.com,2013-07-29 00:49:00,
2013-07-28 21:04:00,73.6,69.5,29.85,ENE,67,2.2,-999.0,87,-99.99,,,0.13,Acu-Link.com,2013-07-29 01:04:00,
2013-07-28 21:50:00,73.8,70.0,29.88,West,270,2.2,-999.0,88,-99.99,,,0.13,Acu-Link.com,2013-07-29 01:50:00,
2013-07-28 22:05:00,73.8,70.0,29.87,WSW,247,2.7,-999.0,88,-99.99,,,0.13,Acu-Link.com,2013-07-29 02:05:00,
2013-07-28 22:21:00,73.8,70.0,29.88,SW,225,3.2,-999.0,88,-99.99,,,0.13,Acu-Link.com,2013-07-29 02:21:00,
2013-07-28 22:51:00,73.8,70.3,29.88,South,180,3.2,-999.0,89,-99.99,,,0.15,Acu-Link.com,2013-07-29 02:51:00,
2013-07-28 23:22:00,72.9,71.1,29.88,SSW,202,5.8,-999.0,94,-99.99,,,0.19,Acu-Link.com,2013-07-29 03:22:00,
2013-07-28 23:37:00,72.3,70.5,29.87,West,270,3.2,-999.0,94,-99.99,,,0.21,Acu-Link.com,2013-07-29 03:37:00,
2013-07-28 23:52:00,71.8,70.0,29.87,SW,225,3.2,-999.0,94,-99.99,,,0.25,Acu-Link.com,2013-07-29 03:52:00,